Terminal Aerodrome Forecast
Issued by NWS Austin/San Antonio, TX

Home | Current Version | Previous Version | Text Only | Print | Product List | Glossary On
Versions: 1 2 3 4 5 6 7 8 9 10 11 12 13 14 15 16 17 18 19 20 21 22 23 24 25 26 27 28 29 30
005
FTUS44 KEWX 272200 AAA
TAFSAT
TAF AMD
KSAT 272200Z 2722/2824 04012KT P6SM FEW060
     FM280000 09010KT P6SM FEW050
     FM280500 13009KT P6SM OVC015
     FM280900 16007KT P6SM OVC007
     FM281500 16009KT P6SM OVC015
     FM281900 16009KT P6SM BKN040=

USA.gov is the U.S. government's official web portal to all federal, state and local government web resources and services.